Cadosia, New York
Current Conditions -  °F | °C
As of 12:35 PM on Wednesday 26 Nov 2014 (Local Time) from KMSV Reporting Station
NA  
Wind Chill: 25°   Ceiling: NA
Heat Index: 30°   Visibility: 0.75mi
Dew Point: 28°   Wind: 5mph
Humidity: 93%   Direction: 60°ENE
Pressure: 30.03"   Gusts: NA
Location:  41.9099°N, 75.1815°W
Report Text: KMSV 261735Z AUTO 06004KT 3/4SM M01/M02 A3003 RMK AO1
Loading
Personal Weather Stations






























Interactive Weather Map New forecast layout! Learn more

10-Day Weather Forecast

Advertisements
Track Severe Weather on mobile